Terminal Aerodrome Forecast
Issued by NWS

Home | Current Version | Previous Version | Text Only | Print | Product List | Glossary On
Versions: 1 2 3 4 5 6 7 8 9 10 11 12 13
874
FTUS43 KPAH 302339
TAFCGI
TAF
KCGI 302339Z 0100/0124 19006KT P6SM VCSH SCT030
     FM010300 19003KT P6SM FEW035 SCT150
     FM010800 21003KT 4SM BR SKC
      TEMPO 0110/0114 00000KT 1SM BR
     FM011500 VRB04KT P6SM SCT025
     FM011800 27005KT P6SM BKN035=

USA.gov is the U.S. government's official web portal to all federal, state and local government web resources and services.